CXY Airport (Capital City) Information

FAA: CXY - ICAO: KCXY

CXY Airport Location

State Pennsylvania
County York
City Harrisburg
CXY Airport is 3 miles southeast of Harrisburg, PA.
Latitude 40-13-01.7000N
Longitude 076-51-04.9000W
Elevation 346ft

KCXY Airport METARs

METAR KCXY 060556Z AUTO 26004KT 10SM CLR 27/22 A2985 RMK AO2 SLP105 T02670217 10289 20267 50001
Altimeter 29.85"
Temperature 26.7°C (80.1°F)
Wind 260° at 4KT
Clouds Skies are clear.
Visibility 10.0mi
Time observed: 2022-07-06T05:56:00Z

CXY Airport Details

Status Operational
Activation August 1938
Ownership Public
Usage Public
Chart NEW YORK
ATC on-site Yes
Beacon schedule sunset-sunrise
Beacon color clear green

CXY Airport Contacts

Owner SUSQUEHANNA REG ARPT AUTH
Owner address ONE TERMINAL DRIVE, SUITE 30, MIDDLETOWN, PA 17057
Owner phone 717-948-3900
Manager JOHN R. MORRIS
Manager address 196 RIDGE ROAD, GETTYSBURG, PA 17325
Manager phone 717-778-8205

CXY Airport (Capital City) Radio Frequencies

CXY (Airport) Radio Frequencies

UNICOM 122.95
Common traffic advisory frequency (CTAF) 119.5